FMMI

Ivato Airport

Antananarivo, Madagascar
METAR FMMI 150030Z 15004KT 9999 FEW020 10/09 Q1028 NOSIG
Observed Flight Rules
Aug-15 @ 00:30 UTC (35 minutes ago) Visual Flight Rules
Wind Visibility Clouds
150° at 4 knots 10,000+ meters
  • Few at 2,000' AGL
Temperatures Readings
Current 10°C / 50°F
Dewpoint 9°C / 48°F
Humidity 94%
Altimeter 30.35" Hg
Pressure 1028 hPa
Elevation 1276
METAR FMMI 150030Z 15004KT 9999 FEW020 10/09 Q1028 NOSIG
Observed Flight Rules
Aug-15 @ 00:30 UTC
(35 minutes ago)
VFR
Wind Visibility
150° at 4 knots 10,000+ meters
Clouds
  • Few at 2,000' AGL
Temperature Dewpoint
10°C / 50°F 9°C / 48°F
Humidity Altimeter Pressure
94% 30.35" Hg 1028 hPa